sensor_id;sensor_type;location;lat;lon;timestamp;P1;durP1;ratioP1;P2;durP2;ratioP2
2476;SDS011;1249;51.270;6.756;2023-04-03T00:00:30;4.40;;;3.67;;
2476;SDS011;1249;51.270;6.756;2023-04-03T00:02:56;3.40;;;3.00;;
2476;SDS011;1249;51.270;6.756;2023-04-03T00:05:22;3.57;;;2.90;;
2476;SDS011;1249;51.270;6.756;2023-04-03T00:07:47;3.27;;;2.93;;
2476;SDS011;1249;51.270;6.756;2023-04-03T00:10:14;7.33;;;3.60;;
2476;SDS011;1249;51.270;6.756;2023-04-03T00:12:40;4.77;;;3.60;;
2476;SDS011;1249;51.270;6.756;2023-04-03T00:15:06;3.80;;;3.40;;
2476;SDS011;1249;51.270;6.756;2023-04-03T00:17:32;3.53;;;3.23;;
2476;SDS011;1249;51.270;6.756;2023-04-03T00:20:01;3.97;;;3.60;;
2476;SDS011;1249;51.270;6.756;2023-04-03T00:22:28;5.47;;;3.47;;
2476;SDS011;1249;51.270;6.756;2023-04-03T00:24:53;4.70;;;3.63;;
2476;SDS011;1249;51.270;6.756;2023-04-03T00:27:19;3.33;;;3.03;;
2476;SDS011;1249;51.270;6.756;2023-04-03T00:29:45;3.97;;;3.57;;
2476;SDS011;1249;51.270;6.756;2023-04-03T00:32:10;3.60;;;3.30;;
2476;SDS011;1249;51.270;6.756;2023-04-03T00:34:36;3.50;;;3.20;;
2476;SDS011;1249;51.270;6.756;2023-04-03T00:37:02;4.03;;;3.63;;
2476;SDS011;1249;51.270;6.756;2023-04-03T00:39:27;4.93;;;4.20;;
2476;SDS011;1249;51.270;6.756;2023-04-03T00:41:53;4.10;;;3.67;;
2476;SDS011;1249;51.270;6.756;2023-04-03T00:44:22;5.10;;;3.60;;
2476;SDS011;1249;51.270;6.756;2023-04-03T00:47:05;3.50;;;3.20;;
2476;SDS011;1249;51.270;6.756;2023-04-03T00:49:33;3.47;;;3.27;;
2476;SDS011;1249;51.270;6.756;2023-04-03T00:51:59;3.43;;;3.00;;
2476;SDS011;1249;51.270;6.756;2023-04-03T00:54:25;4.93;;;3.77;;
2476;SDS011;1249;51.270;6.756;2023-04-03T00:56:51;8.23;;;4.10;;
2476;SDS011;1249;51.270;6.756;2023-04-03T00:59:24;5.10;;;3.37;;
2476;SDS011;1249;51.270;6.756;2023-04-03T01:01:56;3.77;;;3.47;;
2476;SDS011;1249;51.270;6.756;2023-04-03T01:04:40;4.40;;;4.00;;
2476;SDS011;1249;51.270;6.756;2023-04-03T01:07:15;3.80;;;3.50;;
2476;SDS011;1249;51.270;6.756;2023-04-03T01:09:45;4.43;;;3.60;;
2476;SDS011;1249;51.270;6.756;2023-04-03T01:14:44;3.63;;;3.10;;
2476;SDS011;1249;51.270;6.756;2023-04-03T01:17:27;3.70;;;3.40;;
2476;SDS011;1249;51.270;6.756;2023-04-03T01:19:57;6.10;;;3.60;;
2476;SDS011;1249;51.270;6.756;2023-04-03T01:25:34;4.60;;;4.00;;
2476;SDS011;1249;51.270;6.756;2023-04-03T01:28:02;3.97;;;3.67;;
2476;SDS011;1249;51.270;6.756;2023-04-03T01:30:33;6.23;;;3.50;;
2476;SDS011;1249;51.270;6.756;2023-04-03T01:33:01;6.97;;;3.97;;
2476;SDS011;1249;51.270;6.756;2023-04-03T01:35:27;3.80;;;3.37;;
2476;SDS011;1249;51.270;6.756;2023-04-03T01:37:52;3.90;;;3.60;;
2476;SDS011;1249;51.270;6.756;2023-04-03T01:40:21;4.60;;;4.20;;
2476;SDS011;1249;51.270;6.756;2023-04-03T01:42:47;4.73;;;3.67;;
2476;SDS011;1249;51.270;6.756;2023-04-03T01:45:12;5.37;;;3.73;;
2476;SDS011;1249;51.270;6.756;2023-04-03T01:47:38;3.80;;;3.50;;
2476;SDS011;1249;51.270;6.756;2023-04-03T01:50:03;3.63;;;3.33;;
2476;SDS011;1249;51.270;6.756;2023-04-03T01:52:29;4.73;;;4.27;;
2476;SDS011;1249;51.270;6.756;2023-04-03T01:54:55;4.50;;;4.20;;
2476;SDS011;1249;51.270;6.756;2023-04-03T01:57:20;4.47;;;4.00;;
2476;SDS011;1249;51.270;6.756;2023-04-03T01:59:46;4.67;;;4.27;;
2476;SDS011;1249;51.270;6.756;2023-04-03T02:02:12;5.10;;;4.43;;
2476;SDS011;1249;51.270;6.756;2023-04-03T02:04:39;6.53;;;4.70;;
2476;SDS011;1249;51.270;6.756;2023-04-03T02:07:05;5.27;;;4.77;;
2476;SDS011;1249;51.270;6.756;2023-04-03T02:09:31;7.40;;;4.60;;
2476;SDS011;1249;51.270;6.756;2023-04-03T02:11:56;5.73;;;5.13;;
2476;SDS011;1249;51.270;6.756;2023-04-03T02:14:22;5.47;;;4.87;;
2476;SDS011;1249;51.270;6.756;2023-04-03T02:16:48;5.50;;;4.97;;
2476;SDS011;1249;51.270;6.756;2023-04-03T02:19:14;5.90;;;4.47;;
2476;SDS011;1249;51.270;6.756;2023-04-03T02:21:40;6.03;;;5.03;;
2476;SDS011;1249;51.270;6.756;2023-04-03T02:24:06;6.10;;;5.50;;
2476;SDS011;1249;51.270;6.756;2023-04-03T02:26:31;9.47;;;5.37;;
2476;SDS011;1249;51.270;6.756;2023-04-03T02:28:57;5.57;;;4.40;;
2476;SDS011;1249;51.270;6.756;2023-04-03T02:31:23;8.33;;;4.67;;
2476;SDS011;1249;51.270;6.756;2023-04-03T02:33:49;7.00;;;4.57;;
2476;SDS011;1249;51.270;6.756;2023-04-03T02:36:15;8.20;;;4.80;;
2476;SDS011;1249;51.270;6.756;2023-04-03T02:38:40;5.73;;;4.80;;
2476;SDS011;1249;51.270;6.756;2023-04-03T02:41:08;5.50;;;5.00;;
2476;SDS011;1249;51.270;6.756;2023-04-03T02:43:35;5.40;;;5.00;;
2476;SDS011;1249;51.270;6.756;2023-04-03T02:46:01;8.40;;;4.70;;
2476;SDS011;1249;51.270;6.756;2023-04-03T02:48:27;6.80;;;5.17;;
2476;SDS011;1249;51.270;6.756;2023-04-03T02:50:53;10.20;;;5.47;;
2476;SDS011;1249;51.270;6.756;2023-04-03T02:53:19;5.63;;;5.03;;
2476;SDS011;1249;51.270;6.756;2023-04-03T02:55:45;7.40;;;5.60;;
2476;SDS011;1249;51.270;6.756;2023-04-03T02:58:10;9.97;;;5.50;;
2476;SDS011;1249;51.270;6.756;2023-04-03T03:00:36;5.60;;;5.00;;
2476;SDS011;1249;51.270;6.756;2023-04-03T03:03:02;5.13;;;4.60;;
2476;SDS011;1249;51.270;6.756;2023-04-03T03:05:29;6.13;;;5.13;;
2476;SDS011;1249;51.270;6.756;2023-04-03T03:07:55;6.07;;;5.27;;
2476;SDS011;1249;51.270;6.756;2023-04-03T03:10:21;6.23;;;5.60;;
2476;SDS011;1249;51.270;6.756;2023-04-03T03:12:47;6.37;;;5.57;;
2476;SDS011;1249;51.270;6.756;2023-04-03T03:15:13;7.20;;;4.50;;
2476;SDS011;1249;51.270;6.756;2023-04-03T03:17:40;6.83;;;4.87;;
2476;SDS011;1249;51.270;6.756;2023-04-03T03:20:06;11.23;;;5.03;;
2476;SDS011;1249;51.270;6.756;2023-04-03T03:22:33;5.17;;;4.67;;
2476;SDS011;1249;51.270;6.756;2023-04-03T03:24:59;5.93;;;4.17;;
2476;SDS011;1249;51.270;6.756;2023-04-03T03:27:26;5.57;;;4.50;;
2476;SDS011;1249;51.270;6.756;2023-04-03T03:29:51;4.13;;;3.80;;
2476;SDS011;1249;51.270;6.756;2023-04-03T03:32:17;4.83;;;4.33;;
2476;SDS011;1249;51.270;6.756;2023-04-03T03:34:43;5.33;;;3.93;;
2476;SDS011;1249;51.270;6.756;2023-04-03T03:37:08;9.03;;;4.37;;
2476;SDS011;1249;51.270;6.756;2023-04-03T03:39:34;4.07;;;3.67;;
2476;SDS011;1249;51.270;6.756;2023-04-03T03:42:00;5.00;;;4.07;;
2476;SDS011;1249;51.270;6.756;2023-04-03T03:44:25;4.63;;;4.00;;
2476;SDS011;1249;51.270;6.756;2023-04-03T03:46:51;5.23;;;4.33;;
2476;SDS011;1249;51.270;6.756;2023-04-03T03:49:16;4.70;;;4.33;;
2476;SDS011;1249;51.270;6.756;2023-04-03T03:51:42;6.37;;;4.43;;
2476;SDS011;1249;51.270;6.756;2023-04-03T03:54:07;4.83;;;3.70;;
2476;SDS011;1249;51.270;6.756;2023-04-03T03:56:34;5.70;;;4.30;;
2476;SDS011;1249;51.270;6.756;2023-04-03T03:59:00;3.93;;;3.63;;
2476;SDS011;1249;51.270;6.756;2023-04-03T04:01:25;8.50;;;4.00;;
2476;SDS011;1249;51.270;6.756;2023-04-03T04:03:51;3.33;;;3.07;;
2476;SDS011;1249;51.270;6.756;2023-04-03T04:06:18;6.23;;;4.20;;
2476;SDS011;1249;51.270;6.756;2023-04-03T04:08:44;5.57;;;2.97;;
2476;SDS011;1249;51.270;6.756;2023-04-03T04:11:10;4.37;;;3.33;;
2476;SDS011;1249;51.270;6.756;2023-04-03T04:13:35;4.70;;;4.10;;
2476;SDS011;1249;51.270;6.756;2023-04-03T04:16:01;4.30;;;3.90;;
2476;SDS011;1249;51.270;6.756;2023-04-03T04:18:27;5.10;;;3.70;;
2476;SDS011;1249;51.270;6.756;2023-04-03T04:20:52;4.47;;;3.37;;
2476;SDS011;1249;51.270;6.756;2023-04-03T04:23:18;5.77;;;3.27;;
2476;SDS011;1249;51.270;6.756;2023-04-03T04:25:45;4.90;;;3.40;;
2476;SDS011;1249;51.270;6.756;2023-04-03T04:28:11;4.30;;;3.27;;
2476;SDS011;1249;51.270;6.756;2023-04-03T04:30:37;3.80;;;3.27;;
2476;SDS011;1249;51.270;6.756;2023-04-03T04:33:03;6.17;;;3.10;;
2476;SDS011;1249;51.270;6.756;2023-04-03T04:35:29;6.30;;;3.20;;
2476;SDS011;1249;51.270;6.756;2023-04-03T04:37:54;4.93;;;3.40;;
2476;SDS011;1249;51.270;6.756;2023-04-03T04:40:20;7.63;;;3.20;;
2476;SDS011;1249;51.270;6.756;2023-04-03T04:42:46;4.67;;;3.30;;
2476;SDS011;1249;51.270;6.756;2023-04-03T04:45:11;3.50;;;2.87;;
2476;SDS011;1249;51.270;6.756;2023-04-03T04:47:37;3.77;;;3.00;;
2476;SDS011;1249;51.270;6.756;2023-04-03T04:50:03;8.43;;;3.40;;
2476;SDS011;1249;51.270;6.756;2023-04-03T04:52:29;5.83;;;3.00;;
2476;SDS011;1249;51.270;6.756;2023-04-03T04:54:54;3.70;;;2.97;;
2476;SDS011;1249;51.270;6.756;2023-04-03T04:57:20;5.43;;;4.57;;
2476;SDS011;1249;51.270;6.756;2023-04-03T04:59:46;2.60;;;2.40;;
2476;SDS011;1249;51.270;6.756;2023-04-03T05:02:11;5.80;;;3.53;;
2476;SDS011;1249;51.270;6.756;2023-04-03T05:04:37;6.73;;;3.20;;
2476;SDS011;1249;51.270;6.756;2023-04-03T05:07:02;3.40;;;2.90;;
2476;SDS011;1249;51.270;6.756;2023-04-03T05:09:28;3.07;;;2.70;;
2476;SDS011;1249;51.270;6.756;2023-04-03T05:11:53;5.07;;;2.53;;
2476;SDS011;1249;51.270;6.756;2023-04-03T05:14:19;6.83;;;2.73;;
2476;SDS011;1249;51.270;6.756;2023-04-03T05:16:45;4.00;;;2.70;;
2476;SDS011;1249;51.270;6.756;2023-04-03T05:19:10;5.50;;;2.77;;
2476;SDS011;1249;51.270;6.756;2023-04-03T05:21:36;7.97;;;3.40;;
2476;SDS011;1249;51.270;6.756;2023-04-03T05:24:01;3.13;;;2.20;;
2476;SDS011;1249;51.270;6.756;2023-04-03T05:26:31;4.00;;;3.60;;
2476;SDS011;1249;51.270;6.756;2023-04-03T05:28:56;4.10;;;2.70;;
2476;SDS011;1249;51.270;6.756;2023-04-03T05:31:22;3.30;;;2.77;;
2476;SDS011;1249;51.270;6.756;2023-04-03T05:33:48;4.67;;;3.10;;
2476;SDS011;1249;51.270;6.756;2023-04-03T05:36:14;4.27;;;2.80;;
2476;SDS011;1249;51.270;6.756;2023-04-03T05:38:40;3.50;;;3.17;;
2476;SDS011;1249;51.270;6.756;2023-04-03T05:41:06;8.00;;;3.90;;
2476;SDS011;1249;51.270;6.756;2023-04-03T05:43:31;8.90;;;5.50;;
2476;SDS011;1249;51.270;6.756;2023-04-03T05:45:58;4.73;;;3.60;;
2476;SDS011;1249;51.270;6.756;2023-04-03T05:48:24;5.10;;;3.90;;
2476;SDS011;1249;51.270;6.756;2023-04-03T05:50:50;5.60;;;5.10;;
2476;SDS011;1249;51.270;6.756;2023-04-03T05:53:17;5.87;;;3.20;;
2476;SDS011;1249;51.270;6.756;2023-04-03T05:55:46;7.60;;;3.60;;
2476;SDS011;1249;51.270;6.756;2023-04-03T05:58:12;3.50;;;2.77;;
2476;SDS011;1249;51.270;6.756;2023-04-03T06:00:38;5.13;;;2.37;;
2476;SDS011;1249;51.270;6.756;2023-04-03T06:03:03;7.07;;;3.73;;
2476;SDS011;1249;51.270;6.756;2023-04-03T06:05:29;2.50;;;2.10;;
2476;SDS011;1249;51.270;6.756;2023-04-03T06:07:55;4.03;;;2.97;;
2476;SDS011;1249;51.270;6.756;2023-04-03T06:10:22;3.70;;;2.93;;
2476;SDS011;1249;51.270;6.756;2023-04-03T06:12:47;3.10;;;2.83;;
2476;SDS011;1249;51.270;6.756;2023-04-03T06:15:13;5.00;;;3.43;;
2476;SDS011;1249;51.270;6.756;2023-04-03T06:17:39;3.00;;;2.67;;
2476;SDS011;1249;51.270;6.756;2023-04-03T06:20:05;9.50;;;3.60;;
2476;SDS011;1249;51.270;6.756;2023-04-03T06:22:31;4.43;;;2.93;;
2476;SDS011;1249;51.270;6.756;2023-04-03T06:27:27;4.20;;;2.80;;
2476;SDS011;1249;51.270;6.756;2023-04-03T06:29:53;2.53;;;2.33;;
2476;SDS011;1249;51.270;6.756;2023-04-03T06:32:18;4.10;;;3.13;;
2476;SDS011;1249;51.270;6.756;2023-04-03T06:34:44;3.87;;;2.47;;
2476;SDS011;1249;51.270;6.756;2023-04-03T06:37:17;3.43;;;2.30;;
2476;SDS011;1249;51.270;6.756;2023-04-03T06:39:45;3.73;;;2.90;;
2476;SDS011;1249;51.270;6.756;2023-04-03T06:42:11;4.17;;;3.63;;
2476;SDS011;1249;51.270;6.756;2023-04-03T06:44:37;5.23;;;4.63;;
2476;SDS011;1249;51.270;6.756;2023-04-03T06:47:02;3.60;;;3.03;;
2476;SDS011;1249;51.270;6.756;2023-04-03T06:49:28;5.37;;;2.83;;
2476;SDS011;1249;51.270;6.756;2023-04-03T06:51:54;4.03;;;3.30;;
2476;SDS011;1249;51.270;6.756;2023-04-03T06:54:22;6.30;;;3.37;;
2476;SDS011;1249;51.270;6.756;2023-04-03T06:56:48;2.60;;;2.40;;
2476;SDS011;1249;51.270;6.756;2023-04-03T06:59:15;5.43;;;3.30;;
2476;SDS011;1249;51.270;6.756;2023-04-03T07:01:41;4.00;;;3.10;;
2476;SDS011;1249;51.270;6.756;2023-04-03T07:04:06;4.00;;;2.50;;
2476;SDS011;1249;51.270;6.756;2023-04-03T07:06:33;7.40;;;3.23;;
2476;SDS011;1249;51.270;6.756;2023-04-03T07:08:59;7.27;;;2.67;;
2476;SDS011;1249;51.270;6.756;2023-04-03T07:11:25;3.50;;;2.40;;
2476;SDS011;1249;51.270;6.756;2023-04-03T07:13:52;2.63;;;2.43;;
2476;SDS011;1249;51.270;6.756;2023-04-03T07:16:19;4.20;;;3.13;;
2476;SDS011;1249;51.270;6.756;2023-04-03T07:18:45;7.20;;;2.90;;
2476;SDS011;1249;51.270;6.756;2023-04-03T07:21:11;5.60;;;2.93;;
2476;SDS011;1249;51.270;6.756;2023-04-03T07:23:37;5.17;;;2.50;;
2476;SDS011;1249;51.270;6.756;2023-04-03T07:26:03;3.70;;;2.40;;
2476;SDS011;1249;51.270;6.756;2023-04-03T07:28:29;5.37;;;3.70;;
2476;SDS011;1249;51.270;6.756;2023-04-03T07:31:05;6.67;;;4.17;;
2476;SDS011;1249;51.270;6.756;2023-04-03T07:33:33;7.67;;;2.50;;
2476;SDS011;1249;51.270;6.756;2023-04-03T07:36:00;7.13;;;2.67;;
2476;SDS011;1249;51.270;6.756;2023-04-03T07:38:26;3.23;;;2.60;;
2476;SDS011;1249;51.270;6.756;2023-04-03T07:40:52;5.93;;;2.40;;
2476;SDS011;1249;51.270;6.756;2023-04-03T07:43:18;4.30;;;2.60;;
2476;SDS011;1249;51.270;6.756;2023-04-03T07:45:45;3.63;;;2.83;;
2476;SDS011;1249;51.270;6.756;2023-04-03T07:48:14;6.00;;;2.40;;
2476;SDS011;1249;51.270;6.756;2023-04-03T07:50:42;2.27;;;2.07;;
2476;SDS011;1249;51.270;6.756;2023-04-03T07:53:08;4.20;;;2.57;;
2476;SDS011;1249;51.270;6.756;2023-04-03T07:55:34;7.20;;;3.00;;
2476;SDS011;1249;51.270;6.756;2023-04-03T07:58:07;5.10;;;1.80;;
2476;SDS011;1249;51.270;6.756;2023-04-03T08:00:38;2.97;;;2.03;;
2476;SDS011;1249;51.270;6.756;2023-04-03T08:03:04;3.03;;;2.30;;
2476;SDS011;1249;51.270;6.756;2023-04-03T08:05:30;2.33;;;2.13;;
2476;SDS011;1249;51.270;6.756;2023-04-03T08:07:56;4.83;;;2.40;;
2476;SDS011;1249;51.270;6.756;2023-04-03T08:10:22;5.57;;;2.70;;
2476;SDS011;1249;51.270;6.756;2023-04-03T08:12:47;3.83;;;2.40;;
2476;SDS011;1249;51.270;6.756;2023-04-03T08:15:13;5.00;;;2.00;;
2476;SDS011;1249;51.270;6.756;2023-04-03T08:17:39;3.77;;;2.30;;
2476;SDS011;1249;51.270;6.756;2023-04-03T08:20:05;6.10;;;2.83;;
2476;SDS011;1249;51.270;6.756;2023-04-03T08:22:32;2.87;;;2.53;;
2476;SDS011;1249;51.270;6.756;2023-04-03T08:24:58;3.33;;;1.80;;
2476;SDS011;1249;51.270;6.756;2023-04-03T08:27:24;4.20;;;2.70;;
2476;SDS011;1249;51.270;6.756;2023-04-03T08:29:51;3.30;;;2.33;;
2476;SDS011;1249;51.270;6.756;2023-04-03T08:32:17;2.77;;;1.60;;
2476;SDS011;1249;51.270;6.756;2023-04-03T08:34:43;3.83;;;2.43;;
2476;SDS011;1249;51.270;6.756;2023-04-03T08:37:08;3.47;;;2.30;;
2476;SDS011;1249;51.270;6.756;2023-04-03T08:39:34;4.23;;;1.90;;
2476;SDS011;1249;51.270;6.756;2023-04-03T08:42:02;3.37;;;1.73;;
2476;SDS011;1249;51.270;6.756;2023-04-03T08:50:18;2.07;;;1.60;;
2476;SDS011;1249;51.270;6.756;2023-04-03T08:52:50;4.80;;;2.70;;
2476;SDS011;1249;51.270;6.756;2023-04-03T08:55:38;1.77;;;1.67;;
2476;SDS011;1249;51.270;6.756;2023-04-03T08:58:12;2.90;;;1.63;;
2476;SDS011;1249;51.270;6.756;2023-04-03T09:03:33;8.13;;;2.00;;
2476;SDS011;1249;51.270;6.756;2023-04-03T09:06:03;5.63;;;1.93;;
2476;SDS011;1249;51.270;6.756;2023-04-03T09:11:47;2.60;;;1.80;;
2476;SDS011;1249;51.270;6.756;2023-04-03T09:17:21;3.03;;;1.90;;
2476;SDS011;1249;51.270;6.756;2023-04-03T09:22:54;1.40;;;1.30;;
2476;SDS011;1249;51.270;6.756;2023-04-03T09:25:21;2.17;;;1.60;;
2476;SDS011;1249;51.270;6.756;2023-04-03T09:27:50;2.80;;;1.67;;
2476;SDS011;1249;51.270;6.756;2023-04-03T09:30:25;4.77;;;3.10;;
2476;SDS011;1249;51.270;6.756;2023-04-03T09:32:53;3.67;;;3.37;;
2476;SDS011;1249;51.270;6.756;2023-04-03T09:35:30;8.93;;;7.50;;
2476;SDS011;1249;51.270;6.756;2023-04-03T09:38:01;4.87;;;4.47;;
2476;SDS011;1249;51.270;6.756;2023-04-03T09:40:34;1.90;;;1.60;;
2476;SDS011;1249;51.270;6.756;2023-04-03T09:45:45;2.83;;;1.70;;
2476;SDS011;1249;51.270;6.756;2023-04-03T09:53:26;4.27;;;1.20;;
2476;SDS011;1249;51.270;6.756;2023-04-03T09:55:58;2.37;;;1.43;;
2476;SDS011;1249;51.270;6.756;2023-04-03T09:58:29;2.90;;;1.63;;
2476;SDS011;1249;51.270;6.756;2023-04-03T10:01:09;3.10;;;1.50;;
2476;SDS011;1249;51.270;6.756;2023-04-03T10:03:45;1.50;;;1.40;;
2476;SDS011;1249;51.270;6.756;2023-04-03T10:06:22;1.43;;;1.33;;
2476;SDS011;1249;51.270;6.756;2023-04-03T10:09:03;5.70;;;2.10;;
2476;SDS011;1249;51.270;6.756;2023-04-03T10:11:32;4.47;;;1.60;;
2476;SDS011;1249;51.270;6.756;2023-04-03T10:13:59;2.00;;;1.60;;
2476;SDS011;1249;51.270;6.756;2023-04-03T10:16:46;4.00;;;1.50;;
2476;SDS011;1249;51.270;6.756;2023-04-03T10:27:24;3.90;;;3.47;;
2476;SDS011;1249;51.270;6.756;2023-04-03T10:30:16;4.70;;;3.27;;
2476;SDS011;1249;51.270;6.756;2023-04-03T10:38:36;4.30;;;1.97;;
2476;SDS011;1249;51.270;6.756;2023-04-03T10:47:02;3.30;;;3.00;;
2476;SDS011;1249;51.270;6.756;2023-04-03T10:52:56;4.23;;;1.67;;
2476;SDS011;1249;51.270;6.756;2023-04-03T10:57:52;7.67;;;2.00;;
2476;SDS011;1249;51.270;6.756;2023-04-03T11:03:16;2.53;;;2.00;;
2476;SDS011;1249;51.270;6.756;2023-04-03T11:05:52;4.33;;;2.77;;
2476;SDS011;1249;51.270;6.756;2023-04-03T11:08:27;4.17;;;3.77;;
2476;SDS011;1249;51.270;6.756;2023-04-03T11:11:16;5.70;;;2.60;;
2476;SDS011;1249;51.270;6.756;2023-04-03T11:16:28;3.13;;;2.00;;
2476;SDS011;1249;51.270;6.756;2023-04-03T11:21:29;2.10;;;1.57;;
2476;SDS011;1249;51.270;6.756;2023-04-03T11:24:00;3.10;;;2.07;;
2476;SDS011;1249;51.270;6.756;2023-04-03T11:26:30;2.40;;;2.20;;
2476;SDS011;1249;51.270;6.756;2023-04-03T11:29:01;4.00;;;3.60;;
2476;SDS011;1249;51.270;6.756;2023-04-03T11:36:43;3.73;;;3.20;;
2476;SDS011;1249;51.270;6.756;2023-04-03T11:41:55;3.10;;;1.83;;
2476;SDS011;1249;51.270;6.756;2023-04-03T11:44:37;1.70;;;1.60;;
2476;SDS011;1249;51.270;6.756;2023-04-03T11:47:04;2.93;;;1.87;;
2476;SDS011;1249;51.270;6.756;2023-04-03T12:05:49;4.17;;;2.10;;
2476;SDS011;1249;51.270;6.756;2023-04-03T12:08:30;6.17;;;2.10;;
2476;SDS011;1249;51.270;6.756;2023-04-03T12:18:55;2.03;;;1.80;;
2476;SDS011;1249;51.270;6.756;2023-04-03T12:26:40;2.40;;;2.10;;
2476;SDS011;1249;51.270;6.756;2023-04-03T12:29:37;3.33;;;2.20;;
2476;SDS011;1249;51.270;6.756;2023-04-03T12:37:52;3.67;;;3.17;;
2476;SDS011;1249;51.270;6.756;2023-04-03T12:40:45;2.70;;;2.43;;
2476;SDS011;1249;51.270;6.756;2023-04-03T12:46:21;13.47;;;8.97;;
2476;SDS011;1249;51.270;6.756;2023-04-03T12:48:52;21.97;;;13.23;;
2476;SDS011;1249;51.270;6.756;2023-04-03T12:54:15;3.97;;;3.30;;
2476;SDS011;1249;51.270;6.756;2023-04-03T12:56:44;8.73;;;4.20;;
2476;SDS011;1249;51.270;6.756;2023-04-03T12:59:24;3.43;;;2.70;;
2476;SDS011;1249;51.270;6.756;2023-04-03T13:01:55;1.77;;;1.67;;
2476;SDS011;1249;51.270;6.756;2023-04-03T13:04:22;1.80;;;1.70;;
2476;SDS011;1249;51.270;6.756;2023-04-03T13:06:49;3.10;;;1.93;;
2476;SDS011;1249;51.270;6.756;2023-04-03T13:09:25;6.70;;;2.27;;
2476;SDS011;1249;51.270;6.756;2023-04-03T13:14:50;3.03;;;2.77;;
2476;SDS011;1249;51.270;6.756;2023-04-03T13:17:23;3.40;;;2.13;;
2476;SDS011;1249;51.270;6.756;2023-04-03T13:19:49;3.10;;;1.73;;
2476;SDS011;1249;51.270;6.756;2023-04-03T13:22:34;2.33;;;2.00;;
2476;SDS011;1249;51.270;6.756;2023-04-03T13:25:10;2.53;;;2.20;;
2476;SDS011;1249;51.270;6.756;2023-04-03T13:27:39;1.70;;;1.40;;
2476;SDS011;1249;51.270;6.756;2023-04-03T13:30:17;1.93;;;1.73;;
2476;SDS011;1249;51.270;6.756;2023-04-03T13:32:55;1.93;;;1.40;;
2476;SDS011;1249;51.270;6.756;2023-04-03T13:38:27;1.90;;;1.70;;
2476;SDS011;1249;51.270;6.756;2023-04-03T13:40:54;1.60;;;1.50;;
2476;SDS011;1249;51.270;6.756;2023-04-03T13:43:26;1.60;;;1.50;;
2476;SDS011;1249;51.270;6.756;2023-04-03T13:45:54;1.67;;;1.57;;
2476;SDS011;1249;51.270;6.756;2023-04-03T13:48:21;2.73;;;2.07;;
2476;SDS011;1249;51.270;6.756;2023-04-03T13:53:44;3.13;;;2.17;;
2476;SDS011;1249;51.270;6.756;2023-04-03T13:56:24;1.80;;;1.63;;
2476;SDS011;1249;51.270;6.756;2023-04-03T13:59:00;2.00;;;1.80;;
2476;SDS011;1249;51.270;6.756;2023-04-03T14:01:47;3.07;;;1.93;;
2476;SDS011;1249;51.270;6.756;2023-04-03T14:04:20;2.50;;;1.30;;
2476;SDS011;1249;51.270;6.756;2023-04-03T14:06:48;2.13;;;1.87;;
2476;SDS011;1249;51.270;6.756;2023-04-03T14:09:15;3.40;;;1.87;;
2476;SDS011;1249;51.270;6.756;2023-04-03T14:11:42;2.60;;;1.53;;
2476;SDS011;1249;51.270;6.756;2023-04-03T14:14:18;2.70;;;1.87;;
2476;SDS011;1249;51.270;6.756;2023-04-03T14:16:47;3.27;;;2.03;;
2476;SDS011;1249;51.270;6.756;2023-04-03T14:19:19;2.03;;;1.83;;
2476;SDS011;1249;51.270;6.756;2023-04-03T14:21:47;1.73;;;1.60;;
2476;SDS011;1249;51.270;6.756;2023-04-03T14:24:13;1.60;;;1.40;;
2476;SDS011;1249;51.270;6.756;2023-04-03T14:26:39;4.27;;;2.00;;
2476;SDS011;1249;51.270;6.756;2023-04-03T14:29:05;2.83;;;1.50;;
2476;SDS011;1249;51.270;6.756;2023-04-03T14:31:31;2.87;;;2.20;;
2476;SDS011;1249;51.270;6.756;2023-04-03T14:33:57;5.00;;;1.93;;
2476;SDS011;1249;51.270;6.756;2023-04-03T14:36:23;1.80;;;1.50;;
2476;SDS011;1249;51.270;6.756;2023-04-03T14:38:51;6.03;;;2.27;;
2476;SDS011;1249;51.270;6.756;2023-04-03T14:41:18;2.23;;;1.50;;
2476;SDS011;1249;51.270;6.756;2023-04-03T14:43:47;2.77;;;1.83;;
2476;SDS011;1249;51.270;6.756;2023-04-03T14:46:18;2.53;;;1.50;;
2476;SDS011;1249;51.270;6.756;2023-04-03T14:48:50;3.10;;;1.70;;
2476;SDS011;1249;51.270;6.756;2023-04-03T14:51:15;2.13;;;1.70;;
2476;SDS011;1249;51.270;6.756;2023-04-03T14:53:42;2.50;;;1.80;;
2476;SDS011;1249;51.270;6.756;2023-04-03T14:56:17;2.77;;;1.80;;
2476;SDS011;1249;51.270;6.756;2023-04-03T14:58:47;3.73;;;1.60;;
2476;SDS011;1249;51.270;6.756;2023-04-03T15:01:15;4.90;;;2.30;;
2476;SDS011;1249;51.270;6.756;2023-04-03T15:03:41;4.20;;;3.07;;
2476;SDS011;1249;51.270;6.756;2023-04-03T15:06:09;13.83;;;8.90;;
2476;SDS011;1249;51.270;6.756;2023-04-03T15:08:38;10.03;;;7.43;;
2476;SDS011;1249;51.270;6.756;2023-04-03T15:11:06;5.70;;;3.83;;
2476;SDS011;1249;51.270;6.756;2023-04-03T15:13:33;5.30;;;4.17;;
2476;SDS011;1249;51.270;6.756;2023-04-03T15:15:58;4.90;;;4.10;;
2476;SDS011;1249;51.270;6.756;2023-04-03T15:18:25;4.83;;;3.10;;
2476;SDS011;1249;51.270;6.756;2023-04-03T15:20:53;6.70;;;5.10;;
2476;SDS011;1249;51.270;6.756;2023-04-03T15:23:20;3.30;;;2.90;;
2476;SDS011;1249;51.270;6.756;2023-04-03T15:25:50;5.50;;;4.17;;
2476;SDS011;1249;51.270;6.756;2023-04-03T15:28:18;2.60;;;2.30;;
2476;SDS011;1249;51.270;6.756;2023-04-03T15:30:56;2.90;;;2.17;;
2476;SDS011;1249;51.270;6.756;2023-04-03T15:33:22;4.90;;;4.20;;
2476;SDS011;1249;51.270;6.756;2023-04-03T15:35:48;2.53;;;2.07;;
2476;SDS011;1249;51.270;6.756;2023-04-03T15:38:14;4.57;;;2.50;;
2476;SDS011;1249;51.270;6.756;2023-04-03T15:40:39;1.80;;;1.70;;
2476;SDS011;1249;51.270;6.756;2023-04-03T15:43:05;2.07;;;1.87;;
2476;SDS011;1249;51.270;6.756;2023-04-03T15:45:32;4.93;;;2.70;;
2476;SDS011;1249;51.270;6.756;2023-04-03T15:48:00;3.00;;;2.50;;
2476;SDS011;1249;51.270;6.756;2023-04-03T15:50:27;1.87;;;1.67;;
2476;SDS011;1249;51.270;6.756;2023-04-03T15:52:52;2.93;;;1.70;;
2476;SDS011;1249;51.270;6.756;2023-04-03T15:55:24;5.57;;;2.30;;
2476;SDS011;1249;51.270;6.756;2023-04-03T15:57:51;2.97;;;1.90;;
2476;SDS011;1249;51.270;6.756;2023-04-03T16:00:25;3.63;;;2.27;;
2476;SDS011;1249;51.270;6.756;2023-04-03T16:02:53;3.43;;;2.10;;
2476;SDS011;1249;51.270;6.756;2023-04-03T16:05:22;3.50;;;2.27;;
2476;SDS011;1249;51.270;6.756;2023-04-03T16:07:48;2.30;;;2.10;;
2476;SDS011;1249;51.270;6.756;2023-04-03T16:10:14;4.07;;;3.67;;
2476;SDS011;1249;51.270;6.756;2023-04-03T16:12:41;4.20;;;2.17;;
2476;SDS011;1249;51.270;6.756;2023-04-03T16:15:07;4.67;;;3.67;;
2476;SDS011;1249;51.270;6.756;2023-04-03T16:17:33;5.23;;;3.10;;
2476;SDS011;1249;51.270;6.756;2023-04-03T16:20:00;3.83;;;3.30;;
2476;SDS011;1249;51.270;6.756;2023-04-03T16:22:26;3.20;;;2.00;;
2476;SDS011;1249;51.270;6.756;2023-04-03T16:24:53;2.23;;;1.97;;
2476;SDS011;1249;51.270;6.756;2023-04-03T16:27:19;2.73;;;2.17;;
2476;SDS011;1249;51.270;6.756;2023-04-03T16:29:45;2.80;;;2.20;;
2476;SDS011;1249;51.270;6.756;2023-04-03T16:32:11;3.90;;;2.40;;
2476;SDS011;1249;51.270;6.756;2023-04-03T16:34:37;2.53;;;2.00;;
2476;SDS011;1249;51.270;6.756;2023-04-03T16:37:04;2.17;;;1.97;;
2476;SDS011;1249;51.270;6.756;2023-04-03T16:39:31;2.10;;;1.90;;
2476;SDS011;1249;51.270;6.756;2023-04-03T16:41:56;3.83;;;1.77;;
2476;SDS011;1249;51.270;6.756;2023-04-03T16:44:22;2.57;;;2.20;;
2476;SDS011;1249;51.270;6.756;2023-04-03T16:46:48;3.97;;;2.30;;
2476;SDS011;1249;51.270;6.756;2023-04-03T16:49:13;2.00;;;1.80;;
2476;SDS011;1249;51.270;6.756;2023-04-03T16:51:39;7.23;;;2.63;;
2476;SDS011;1249;51.270;6.756;2023-04-03T16:54:05;2.20;;;1.80;;
2476;SDS011;1249;51.270;6.756;2023-04-03T16:56:31;3.10;;;2.10;;
2476;SDS011;1249;51.270;6.756;2023-04-03T16:58:57;1.37;;;1.27;;
2476;SDS011;1249;51.270;6.756;2023-04-03T17:01:22;1.50;;;1.40;;
2476;SDS011;1249;51.270;6.756;2023-04-03T17:03:48;3.30;;;2.10;;
2476;SDS011;1249;51.270;6.756;2023-04-03T17:06:18;2.40;;;1.83;;
2476;SDS011;1249;51.270;6.756;2023-04-03T17:08:46;2.30;;;1.47;;
2476;SDS011;1249;51.270;6.756;2023-04-03T17:11:15;2.20;;;1.80;;
2476;SDS011;1249;51.270;6.756;2023-04-03T17:13:43;2.40;;;1.80;;
2476;SDS011;1249;51.270;6.756;2023-04-03T17:16:11;1.73;;;1.50;;
2476;SDS011;1249;51.270;6.756;2023-04-03T17:18:39;2.40;;;1.60;;
2476;SDS011;1249;51.270;6.756;2023-04-03T17:21:05;5.30;;;2.00;;
2476;SDS011;1249;51.270;6.756;2023-04-03T17:23:31;2.97;;;1.70;;
2476;SDS011;1249;51.270;6.756;2023-04-03T17:26:00;2.77;;;1.70;;